»·PEaware :: SWA2113 KSEA-KLAS

SWA2113 :: KSEA-KLAS

FLIGHT INFORMATION

Flight Status: Arrived
Operator:
Southwest Airlines
More flights by this operator :: More flights under this callsign
Pilot: Andrew C. (28419)
Aircraft: BOEING 737-800
(B738)
More flights by this aircraft type
Origin: KSEA Seattle-Tacoma Intl
United States
Destination: KLAS McCarran Intl
United States
More flights between these airports :: More routes between these airports
Route: +SUMMA2 LKV RYANN J92 BTY SUNST4
File this flight plan on PilotEdge
Remarks: RMK / SIMBRIEF
Altitude:
(Current/Filed)
35,000ft
Speed:
(Current/Filed)
465kts
Departed: 28-Jul-20 08:25 PM
Arrived: 28-Jul-20 10:30 PM
Distance/Time
Traveled:
753nm/2:05
Distance/Time
To Go:
Arrived

Flight Plot

Page will automatically refresh every two minutes.


Map Options




Map Legend


Flown Route
Filed Route
Departure Airport
Arrival Airport
Navaid (VOR, NDB)
Fix

Horizontal Profiles

Position Reports

Time Latitude Longitude Heading Altitude Ground
Speed
28-Jul-20 20:03 47.440594 -122.303384 345 443ft 0kts
28-Jul-20 20:04 47.440594 -122.303384 345 443ft 0kts
28-Jul-20 20:05 47.440594 -122.303384 345 443ft 0kts
28-Jul-20 20:06 47.440594 -122.303384 345 443ft 0kts
28-Jul-20 20:07 47.440594 -122.303384 345 443ft 0kts
28-Jul-20 20:08 47.440593 -122.303384 345 443ft 0kts
28-Jul-20 20:09 47.440593 -122.303384 345 443ft 0kts
28-Jul-20 20:10 47.440593 -122.303384 345 443ft 0kts
28-Jul-20 20:11 47.440593 -122.303384 345 443ft 0kts
28-Jul-20 20:12 47.440593 -122.303384 345 443ft 0kts
28-Jul-20 20:13 47.440593 -122.303384 345 443ft 0kts
28-Jul-20 20:14 47.440536 -122.303363 346 443ft 1kts
28-Jul-20 20:15 47.440217 -122.302797 266 443ft 2kts
28-Jul-20 20:16 47.440305 -122.302454 236 443ft 0kts
28-Jul-20 20:17 47.440305 -122.302454 236 443ft 0kts
28-Jul-20 20:18 47.440111 -122.302900 241 443ft 3kts
28-Jul-20 20:19 47.439908 -122.304562 270 443ft 2kts
28-Jul-20 20:20 47.438954 -122.306453 180 443ft 11kts
28-Jul-20 20:21 47.434773 -122.305609 181 443ft 17kts
28-Jul-20 20:22 47.431772 -122.306549 251 443ft 0kts
28-Jul-20 20:23 47.431730 -122.306806 259 443ft 7kts
28-Jul-20 20:24 47.438450 -122.308000 0 443ft 116kts
28-Jul-20 20:25 47.487860 -122.309128 358 1932ft 227kts
28-Jul-20 20:26 47.558656 -122.308365 356 4437ft 268kts
28-Jul-20 20:27 47.620480 -122.260196 77 7232ft 289kts
28-Jul-20 20:28 47.606972 -122.142039 105 10055ft 302kts
28-Jul-20 20:29 47.584343 -122.006045 105 11340ft 368kts
28-Jul-20 20:30 47.535591 -121.880401 164 13847ft 368kts
28-Jul-20 20:31 47.434128 -121.883123 187 16375ft 374kts
28-Jul-20 20:32 47.328925 -121.896671 187 18686ft 388kts
28-Jul-20 20:33 47.220156 -121.910676 187 20846ft 399kts
28-Jul-20 20:34 47.108226 -121.925085 186 22773ft 410kts
28-Jul-20 20:35 46.993268 -121.939874 186 24501ft 421kts
28-Jul-20 20:36 46.875323 -121.955040 186 26070ft 432kts
28-Jul-20 20:37 46.754284 -121.970617 185 27515ft 441kts
28-Jul-20 20:38 46.631138 -121.986553 185 28848ft 450kts
28-Jul-20 20:39 46.508170 -121.956500 162 30314ft 454kts
28-Jul-20 20:40 46.388555 -121.903716 164 31882ft 449kts
28-Jul-20 20:41 46.268732 -121.855175 165 33310ft 446kts
28-Jul-20 20:42 46.150048 -121.808930 165 34611ft 443kts
28-Jul-20 20:43 46.029966 -121.763039 166 34888ft 450kts
28-Jul-20 20:44 45.910246 -121.717706 166 34890ft 446kts
28-Jul-20 20:45 45.790412 -121.672542 166 34890ft 447kts
28-Jul-20 20:46 45.670282 -121.627541 166 34890ft 446kts
28-Jul-20 20:47 45.550611 -121.582903 166 34890ft 446kts
28-Jul-20 20:48 45.430853 -121.538419 166 34890ft 446kts
28-Jul-20 20:49 45.311481 -121.494248 166 34890ft 445kts
28-Jul-20 20:50 45.191888 -121.450203 166 34890ft 445kts
28-Jul-20 20:51 45.072601 -121.406465 166 34905ft 444kts
28-Jul-20 20:52 44.953349 -121.362916 166 34965ft 443kts
28-Jul-20 20:53 44.834152 -121.319615 166 34972ft 443kts
28-Jul-20 20:54 44.714768 -121.276423 166 34990ft 443kts
28-Jul-20 20:55 44.595970 -121.233620 166 34990ft 442kts
28-Jul-20 20:56 44.477223 -121.191003 167 34990ft 442kts
28-Jul-20 20:57 44.358557 -121.148593 166 35040ft 442kts
28-Jul-20 20:58 44.239253 -121.106133 167 35058ft 441kts
28-Jul-20 20:59 44.120901 -121.064187 167 35048ft 441kts
28-Jul-20 21:00 44.002106 -121.022269 167 35036ft 441kts
28-Jul-20 21:01 43.882772 -120.980275 167 35025ft 443kts
28-Jul-20 21:03 43.763695 -120.938606 167 35031ft 441kts
28-Jul-20 21:04 43.645131 -120.897292 167 35054ft 442kts
28-Jul-20 21:05 43.525773 -120.855850 168 35054ft 443kts
28-Jul-20 21:06 43.406924 -120.814743 168 35054ft 442kts
28-Jul-20 21:07 43.287644 -120.773675 168 35054ft 443kts
28-Jul-20 21:08 43.168224 -120.732708 168 35059ft 443kts
28-Jul-20 21:09 43.049090 -120.692013 168 35092ft 444kts
28-Jul-20 21:10 42.929019 -120.651153 169 35100ft 445kts
28-Jul-20 21:11 42.808951 -120.610456 169 35100ft 445kts
28-Jul-20 21:12 42.689111 -120.570002 169 35100ft 446kts
28-Jul-20 21:13 42.568889 -120.529596 170 35100ft 447kts
28-Jul-20 21:14 42.448495 -120.488094 168 35100ft 449kts
28-Jul-20 21:15 42.328768 -120.441700 168 35100ft 450kts
28-Jul-20 21:16 42.208628 -120.394559 168 35111ft 450kts
28-Jul-20 21:17 42.088477 -120.347422 169 35118ft 450kts
28-Jul-20 21:17 41.988908 -120.308457 169 35102ft 449kts
28-Jul-20 21:19 41.848638 -120.253776 169 35082ft 451kts
28-Jul-20 21:20 41.728422 -120.207091 169 35083ft 450kts
28-Jul-20 21:20 41.628519 -120.168420 169 35084ft 450kts
28-Jul-20 21:22 41.488531 -120.114468 169 35086ft 450kts
28-Jul-20 21:23 41.368574 -120.068411 169 35083ft 450kts
28-Jul-20 21:23 41.268705 -120.030214 169 35069ft 450kts
28-Jul-20 21:25 41.128607 -119.976815 169 35064ft 452kts
28-Jul-20 21:25 41.027670 -119.938503 169 35064ft 452kts
28-Jul-20 21:26 40.906934 -119.892828 169 35064ft 453kts
28-Jul-20 21:28 40.766212 -119.839811 169 35065ft 452kts
28-Jul-20 21:28 40.665483 -119.802019 169 35070ft 452kts
28-Jul-20 21:29 40.544607 -119.756793 170 35073ft 453kts
28-Jul-20 21:30 40.423611 -119.711726 170 35073ft 453kts
28-Jul-20 21:31 40.302383 -119.666735 170 35075ft 453kts
28-Jul-20 21:32 40.181696 -119.622096 170 35127ft 453kts
28-Jul-20 21:33 40.060839 -119.577579 170 35146ft 453kts
28-Jul-20 21:34 39.939544 -119.533050 170 35146ft 453kts
28-Jul-20 21:35 39.818239 -119.488692 170 35146ft 454kts
28-Jul-20 21:36 39.696927 -119.444480 170 35146ft 454kts
28-Jul-20 21:37 39.575454 -119.400385 170 35122ft 455kts
28-Jul-20 21:38 39.453940 -119.356423 170 35100ft 455kts
28-Jul-20 21:39 39.332261 -119.312558 171 35100ft 455kts
28-Jul-20 21:40 39.215357 -119.249133 149 35100ft 475kts
28-Jul-20 21:41 39.117068 -119.132631 141 35100ft 482kts
28-Jul-20 21:42 39.021229 -119.012853 141 35102ft 482kts
28-Jul-20 21:43 38.924815 -118.893021 141 35104ft 483kts
28-Jul-20 21:44 38.828334 -118.773537 141 35040ft 483kts
28-Jul-20 21:45 38.731724 -118.654122 141 35036ft 484kts
28-Jul-20 21:46 38.634805 -118.534729 141 35036ft 484kts
28-Jul-20 21:47 38.537782 -118.415656 141 35036ft 484kts
28-Jul-20 21:48 38.440443 -118.297345 142 35036ft 483kts
28-Jul-20 21:49 38.343366 -118.179568 142 35055ft 484kts
28-Jul-20 21:50 38.245948 -118.061531 142 35099ft 485kts
28-Jul-20 21:51 38.148499 -117.943829 142 35114ft 484kts
28-Jul-20 21:52 38.050881 -117.826365 142 35118ft 484kts
28-Jul-20 21:53 37.945845 -117.722597 150 35118ft 477kts
28-Jul-20 21:54 37.837189 -117.627149 151 35104ft 477kts
28-Jul-20 21:55 37.728081 -117.532656 151 35083ft 478kts
28-Jul-20 21:56 37.618267 -117.438157 151 35082ft 478kts
28-Jul-20 21:57 37.508618 -117.344222 151 35080ft 477kts
28-Jul-20 21:58 37.399212 -117.250947 151 35082ft 477kts
28-Jul-20 21:59 37.289182 -117.157939 151 35082ft 477kts
28-Jul-20 22:00 37.179760 -117.065353 151 34379ft 472kts
28-Jul-20 22:01 37.070397 -116.973105 151 33378ft 477kts
28-Jul-20 22:02 36.960365 -116.880538 151 32378ft 478kts
28-Jul-20 22:03 36.851063 -116.787704 146 31384ft 483kts
28-Jul-20 22:04 36.750984 -116.674098 135 29399ft 485kts
28-Jul-20 22:05 36.664330 -116.552247 133 27268ft 459kts
28-Jul-20 22:06 36.582115 -116.435771 132 25086ft 439kts
28-Jul-20 22:07 36.503413 -116.324363 132 22885ft 421kts
28-Jul-20 22:08 36.427369 -116.217284 132 20660ft 406kts
28-Jul-20 22:09 36.354305 -116.114911 132 18639ft 386kts
28-Jul-20 22:10 36.283605 -116.015935 132 17521ft 389kts
28-Jul-20 22:11 36.214604 -115.918872 128 16200ft 354kts
28-Jul-20 22:12 36.173306 -115.815152 112 16010ft 335kts
28-Jul-20 22:13 36.138784 -115.707557 112 16009ft 335kts
28-Jul-20 22:14 36.104227 -115.600492 112 16009ft 335kts
28-Jul-20 22:15 36.069498 -115.493317 112 16009ft 335kts
28-Jul-20 22:16 36.035638 -115.387743 107 16006ft 312kts
28-Jul-20 22:17 36.024497 -115.284741 95 14142ft 304kts
28-Jul-20 22:18 36.017185 -115.181983 95 12138ft 296kts
28-Jul-20 22:19 36.010434 -115.082027 95 10700ft 286kts
28-Jul-20 22:20 36.004940 -114.989651 95 10008ft 256kts
28-Jul-20 22:21 35.999769 -114.903310 96 8637ft 250kts
28-Jul-20 22:22 36.003327 -114.820487 53 7866ft 244kts
28-Jul-20 22:23 36.057761 -114.817804 301 6703ft 200kts
28-Jul-20 22:24 36.072213 -114.881065 272 5250ft 190kts
28-Jul-20 22:25 36.073568 -114.945752 267 4934ft 193kts
28-Jul-20 22:26 36.073636 -115.010796 267 3920ft 188kts
28-Jul-20 22:27 36.073626 -115.068486 267 2991ft 158kts
28-Jul-20 22:28 36.073628 -115.120488 268 2193ft 147kts
28-Jul-20 22:29 36.073630 -115.150171 269 2127ft 25kts
28-Jul-20 22:30 36.074205 -115.153993 294 2139ft 3kts
28-Jul-20 22:31 36.074609 -115.154929 301 2141ft 11kts
28-Jul-20 22:32 36.077847 -115.157917 51 2145ft 19kts
28-Jul-20 22:33 36.077898 -115.149281 95 2114ft 19kts
28-Jul-20 22:34 36.080829 -115.148367 344 2106ft 5kts
28-Jul-20 22:35 36.081361 -115.147890 64 2104ft 0kts
28-Jul-20 22:36 36.081361 -115.147890 64 2104ft 0kts
28-Jul-20 22:37 36.081361 -115.147890 64 2104ft 0kts
28-Jul-20 22:38 36.081361 -115.147890 64 2104ft 0kts
28-Jul-20 22:39 36.081361 -115.147890 64 2104ft 0kts

Navigation Log

Ident Type
Flight plan parsing failed, navigation log unavailable